Time;durP1;ratioP1;P1;durP2;ratioP2;P2;SDS_P1;SDS_P2;PMS_P1;PMS_P2;Temp;Humidity;BMP_temperature;BMP_pressure;BME280_temperature;BME280_humidity;BME280_pressure;Samples;Min_cycle;Max_cycle;Signal;HPM_P1;HPM_P2
2023/12/10 00:02:16;;;;;;;7.70;3.53;;;1.10;99.90;;;;;;5060543;28;20047;-83
2023/12/10 00:04:43;;;;;;;7.80;4.15;;;1.10;99.90;;;;;;5042838;28;20032;-85
2023/12/10 00:07:09;;;;;;;7.95;4.32;;;1.10;99.90;;;;;;5076995;28;20388;-84
2023/12/10 00:09:35;;;;;;;7.68;4.10;;;1.10;99.90;;;;;;5076920;28;20025;-83
2023/12/10 00:12:01;;;;;;;8.77;4.75;;;1.10;99.90;;;;;;5059328;28;20037;-82
2023/12/10 00:14:27;;;;;;;8.98;4.47;;;1.00;99.90;;;;;;5073856;28;20515;-84
2023/12/10 00:16:53;;;;;;;8.13;4.78;;;1.00;99.90;;;;;;5036472;28;20027;-83
2023/12/10 00:19:19;;;;;;;9.98;5.75;;;0.90;99.90;;;;;;5056965;28;20108;-83
2023/12/10 00:21:45;;;;;;;9.95;5.53;;;0.90;99.90;;;;;;5057542;28;20028;-83
2023/12/10 00:24:11;;;;;;;8.82;4.38;;;0.90;99.90;;;;;;5075162;28;20137;-83
2023/12/10 00:26:36;;;;;;;6.43;3.25;;;0.90;99.90;;;;;;5077489;28;20056;-83
2023/12/10 00:29:02;;;;;;;6.80;3.30;;;0.90;99.90;;;;;;5060524;28;20033;-84
2023/12/10 00:31:28;;;;;;;5.25;3.00;;;0.90;99.90;;;;;;5058876;28;20028;-84
2023/12/10 00:33:54;;;;;;;4.65;2.60;;;1.00;99.90;;;;;;5076095;28;20025;-83
2023/12/10 00:36:20;;;;;;;12.95;5.68;;;0.90;99.90;;;;;;5081912;28;20028;-84
2023/12/10 00:38:46;;;;;;;8.60;4.60;;;0.90;99.90;;;;;;5081411;28;20047;-84
2023/12/10 00:41:12;;;;;;;6.82;3.95;;;0.90;99.90;;;;;;5050087;28;20485;-85
2023/12/10 00:43:41;;;;;;;6.00;3.75;;;0.90;99.90;;;;;;5067360;28;20025;-85
2023/12/10 00:46:08;;;;;;;7.90;3.95;;;0.90;99.90;;;;;;5082111;28;20028;-86
2023/12/10 00:48:34;;;;;;;6.93;3.40;;;0.90;99.90;;;;;;5081609;28;20542;-86
2023/12/10 00:51:00;;;;;;;5.47;3.28;;;0.90;99.90;;;;;;5063881;28;20082;-85
2023/12/10 00:53:26;;;;;;;5.78;3.17;;;0.90;99.90;;;;;;5064294;28;20064;-84
2023/12/10 00:55:52;;;;;;;5.75;3.10;;;0.90;99.90;;;;;;5064835;28;20021;-85
2023/12/10 00:58:17;;;;;;;5.60;2.50;;;0.90;99.90;;;;;;5063117;28;20107;-85
2023/12/10 01:00:44;;;;;;;4.38;2.53;;;0.90;99.90;;;;;;5082379;28;20123;-85
2023/12/10 01:03:09;;;;;;;4.70;2.70;;;0.90;99.90;;;;;;5080675;28;20059;-84
2023/12/10 01:05:35;;;;;;;5.05;2.47;;;0.90;99.90;;;;;;5078464;28;20119;-85
2023/12/10 01:08:01;;;;;;;4.38;2.03;;;1.00;99.90;;;;;;5061409;28;20397;-85
2023/12/10 01:10:27;;;;;;;4.70;2.40;;;1.00;99.90;;;;;;5079032;28;20031;-85
2023/12/10 01:12:52;;;;;;;4.65;2.72;;;1.00;99.90;;;;;;5045991;28;20151;-85
2023/12/10 01:15:29;;;;;;;6.63;3.20;;;1.00;99.90;;;;;;5062475;28;20031;-84
2023/12/10 01:18:01;;;;;;;9.27;4.53;;;1.00;99.90;;;;;;5063034;28;20435;-85
2023/12/10 01:20:31;;;;;;;8.93;4.05;;;1.00;99.90;;;;;;5059491;28;20077;-84
2023/12/10 01:22:58;;;;;;;6.60;4.38;;;1.00;99.90;;;;;;5075254;28;20028;-84
2023/12/10 01:25:24;;;;;;;7.20;3.72;;;1.00;99.90;;;;;;5077542;28;20381;-84
2023/12/10 01:27:53;;;;;;;9.00;4.72;;;1.00;99.90;;;;;;5075162;28;20034;-84
2023/12/10 01:30:23;;;;;;;7.80;4.32;;;1.10;99.90;;;;;;5062156;28;20025;-84
2023/12/10 01:32:51;;;;;;;10.50;4.78;;;1.10;99.90;;;;;;5082848;28;20025;-84
2023/12/10 01:35:17;;;;;;;8.13;4.53;;;1.10;99.90;;;;;;5078157;28;20025;-85
2023/12/10 01:37:43;;;;;;;8.10;4.63;;;1.10;99.90;;;;;;5083148;28;20078;-84
2023/12/10 01:40:09;;;;;;;8.93;4.22;;;1.10;99.90;;;;;;5065493;28;20025;-84
2023/12/10 01:42:35;;;;;;;10.07;6.47;;;1.10;99.90;;;;;;5075662;28;20034;-85
2023/12/10 01:45:03;;;;;;;9.60;5.82;;;1.10;99.90;;;;;;5057535;28;20501;-85
2023/12/10 01:47:33;;;;;;;8.43;4.75;;;1.20;99.90;;;;;;5058640;28;20036;-85
2023/12/10 01:50:02;;;;;;;7.90;4.50;;;1.20;99.90;;;;;;5080323;28;20025;-84
2023/12/10 01:52:29;;;;;;;7.95;4.43;;;1.20;99.90;;;;;;5084075;28;20032;-84
2023/12/10 01:54:54;;;;;;;5.68;3.63;;;1.20;99.90;;;;;;5066275;28;20052;-85
2023/12/10 01:57:20;;;;;;;7.35;4.25;;;1.30;99.90;;;;;;5083251;28;20024;-84
2023/12/10 01:59:46;;;;;;;7.70;4.20;;;1.30;99.90;;;;;;5045144;28;20408;-84
2023/12/10 02:02:12;;;;;;;8.38;4.30;;;1.30;99.90;;;;;;5081814;28;20032;-84
2023/12/10 02:04:40;;;;;;;9.23;5.72;;;1.30;99.90;;;;;;5083285;28;20028;-85
2023/12/10 02:07:05;;;;;;;8.25;4.78;;;1.30;99.90;;;;;;5053767;28;20485;-85
2023/12/10 02:09:31;;;;;;;7.45;4.35;;;1.30;99.90;;;;;;5063713;28;20035;-84
2023/12/10 02:11:57;;;;;;;7.53;3.78;;;1.20;99.90;;;;;;5064088;28;20439;-84
2023/12/10 02:14:23;;;;;;;6.57;4.13;;;1.20;99.90;;;;;;5059297;28;20075;-84
2023/12/10 02:16:48;;;;;;;7.03;3.85;;;1.20;99.90;;;;;;5063338;28;20483;-84
2023/12/10 02:19:14;;;;;;;5.78;3.60;;;1.20;99.90;;;;;;5039865;28;20116;-84
2023/12/10 02:21:50;;;;;;;6.22;4.00;;;1.20;99.90;;;;;;5074714;28;20098;-85
2023/12/10 02:24:23;;;;;;;6.00;3.60;;;1.10;99.90;;;;;;5075222;28;20036;-85
2023/12/10 02:26:49;;;;;;;6.70;3.75;;;1.20;99.90;;;;;;5077748;28;20027;-85
2023/12/10 02:29:15;;;;;;;5.53;3.53;;;1.10;99.90;;;;;;5074092;28;20477;-85
2023/12/10 02:31:42;;;;;;;5.47;3.38;;;1.10;99.90;;;;;;5057829;28;20032;-85
2023/12/10 02:34:08;;;;;;;6.82;4.40;;;1.10;99.90;;;;;;5077400;28;20113;-85
2023/12/10 02:36:34;;;;;;;6.85;4.13;;;1.10;99.90;;;;;;5073541;28;20058;-85
2023/12/10 02:39:00;;;;;;;7.28;3.80;;;1.10;99.90;;;;;;5056980;28;20099;-85
2023/12/10 02:41:25;;;;;;;7.45;4.15;;;1.00;99.90;;;;;;5040770;28;20506;-85
2023/12/10 02:43:51;;;;;;;6.78;4.90;;;1.10;99.90;;;;;;5057113;28;20098;-84
2023/12/10 02:46:17;;;;;;;10.38;5.72;;;1.00;99.90;;;;;;5054504;28;20127;-85
2023/12/10 02:48:43;;;;;;;16.55;8.23;;;1.00;99.90;;;;;;5054036;28;20048;-85
2023/12/10 02:51:08;;;;;;;13.00;6.88;;;1.00;99.90;;;;;;5057394;28;20082;-85
2023/12/10 02:53:34;;;;;;;10.68;5.85;;;1.00;99.90;;;;;;5076180;28;20043;-86
2023/12/10 02:56:00;;;;;;;10.48;5.57;;;1.00;99.90;;;;;;5073620;28;20392;-86
2023/12/10 02:58:25;;;;;;;6.13;3.83;;;1.00;99.90;;;;;;5073963;28;20085;-85
2023/12/10 03:00:51;;;;;;;6.07;3.75;;;1.00;99.90;;;;;;5060840;28;20028;-83
2023/12/10 03:03:17;;;;;;;7.63;3.95;;;1.10;99.90;;;;;;5077795;28;20024;-82
2023/12/10 03:05:42;;;;;;;7.80;4.15;;;1.00;99.90;;;;;;5075803;28;20024;-83
2023/12/10 03:08:08;;;;;;;9.07;5.45;;;1.00;99.90;;;;;;5076626;28;20029;-82
2023/12/10 03:10:34;;;;;;;11.80;5.13;;;1.00;99.90;;;;;;5075817;28;20032;-84
2023/12/10 03:12:59;;;;;;;7.95;4.35;;;1.00;99.90;;;;;;5058884;28;20032;-85
2023/12/10 03:15:25;;;;;;;19.52;10.52;;;1.00;99.90;;;;;;5057290;28;20024;-85
2023/12/10 03:17:51;;;;;;;16.17;7.60;;;1.00;99.90;;;;;;5073598;28;20043;-85
2023/12/10 03:20:17;;;;;;;12.93;6.50;;;1.10;99.90;;;;;;5058562;28;20028;-84
2023/12/10 03:22:42;;;;;;;19.55;10.32;;;1.00;99.90;;;;;;5076055;28;20028;-83
2023/12/10 03:25:08;;;;;;;27.20;13.23;;;1.10;99.90;;;;;;5057382;28;20480;-85
2023/12/10 03:27:34;;;;;;;17.20;8.65;;;1.10;99.90;;;;;;5074285;28;20028;-83
2023/12/10 03:30:00;;;;;;;12.02;6.25;;;1.10;99.90;;;;;;5073575;28;20017;-84
2023/12/10 03:32:26;;;;;;;8.98;5.68;;;1.10;99.90;;;;;;5056870;28;20035;-85
2023/12/10 03:34:51;;;;;;;28.58;12.50;;;1.20;99.90;;;;;;5074529;28;20034;-85
2023/12/10 03:37:17;;;;;;;18.88;9.93;;;1.10;99.90;;;;;;5057097;28;20064;-85
2023/12/10 03:39:43;;;;;;;19.45;8.77;;;1.10;99.90;;;;;;5076251;28;20024;-83
2023/12/10 03:42:08;;;;;;;24.77;12.52;;;1.20;99.90;;;;;;5040869;28;20035;-84
2023/12/10 03:44:34;;;;;;;6.15;4.00;;;1.10;99.90;;;;;;5058606;28;20028;-84
2023/12/10 03:47:02;;;;;;;6.22;3.58;;;1.20;99.90;;;;;;5056174;28;20059;-83
2023/12/10 03:49:28;;;;;;;9.23;3.35;;;1.20;99.90;;;;;;5059716;28;20082;-82
2023/12/10 03:51:57;;;;;;;4.88;2.88;;;1.30;99.90;;;;;;5076690;28;20051;-84
2023/12/10 03:54:23;;;;;;;5.70;2.92;;;1.40;99.90;;;;;;5056774;28;20028;-84
2023/12/10 03:56:49;;;;;;;4.68;3.20;;;1.40;99.90;;;;;;5056482;28;20047;-83
2023/12/10 03:59:14;;;;;;;4.03;2.53;;;1.30;99.90;;;;;;5058998;28;20028;-84
2023/12/10 04:01:43;;;;;;;6.25;3.03;;;1.30;99.90;;;;;;5073514;28;20074;-83
2023/12/10 04:04:11;;;;;;;5.25;2.72;;;1.30;99.90;;;;;;5074395;28;20396;-84
2023/12/10 04:06:40;;;;;;;5.82;3.38;;;1.30;99.90;;;;;;5074041;28;20029;-84
2023/12/10 04:09:07;;;;;;;6.20;2.55;;;1.30;99.90;;;;;;5075098;28;20031;-84
2023/12/10 04:11:32;;;;;;;7.35;3.20;;;1.40;99.90;;;;;;5079877;28;20033;-83
2023/12/10 04:13:58;;;;;;;4.95;2.90;;;1.40;99.90;;;;;;5081492;28;20357;-83
2023/12/10 04:16:29;;;;;;;4.68;2.42;;;1.40;99.90;;;;;;5060705;28;20036;-83
2023/12/10 04:18:55;;;;;;;3.00;1.90;;;1.50;99.90;;;;;;5058272;28;20474;-83
2023/12/10 04:21:22;;;;;;;3.67;2.10;;;1.60;99.90;;;;;;5077855;28;20024;-83
2023/12/10 04:23:47;;;;;;;4.40;2.30;;;1.60;99.90;;;;;;5077824;28;20086;-83
2023/12/10 04:26:15;;;;;;;6.93;2.70;;;1.60;99.90;;;;;;5063583;28;20024;-84
2023/12/10 04:28:41;;;;;;;3.60;2.17;;;1.60;99.90;;;;;;5080190;28;20029;-83
2023/12/10 04:31:07;;;;;;;4.78;2.55;;;1.70;99.90;;;;;;5064489;28;20512;-83
2023/12/10 04:33:33;;;;;;;4.43;2.05;;;1.70;99.90;;;;;;5063725;28;20028;-84
2023/12/10 04:35:59;;;;;;;4.18;2.22;;;1.70;99.90;;;;;;5081375;28;20020;-84
2023/12/10 04:38:25;;;;;;;3.83;1.92;;;1.70;99.90;;;;;;5046947;28;20074;-82
2023/12/10 04:40:51;;;;;;;3.08;1.42;;;1.60;99.90;;;;;;5080849;28;20108;-82
2023/12/10 04:43:17;;;;;;;6.03;1.95;;;1.60;99.90;;;;;;5062981;28;20453;-83
2023/12/10 04:45:42;;;;;;;4.50;2.58;;;1.60;99.90;;;;;;5064146;28;20050;-83
2023/12/10 04:48:09;;;;;;;3.20;1.80;;;1.50;99.90;;;;;;5061943;28;20045;-82
2023/12/10 04:50:35;;;;;;;3.20;1.80;;;1.50;99.90;;;;;;5075463;28;20039;-83
2023/12/10 04:53:00;;;;;;;4.50;1.90;;;1.50;99.90;;;;;;5078503;28;20033;-83
2023/12/10 04:55:26;;;;;;;4.03;2.15;;;1.50;99.90;;;;;;5047135;28;20031;-82
2023/12/10 04:57:52;;;;;;;4.90;1.90;;;1.40;99.90;;;;;;5076542;28;20438;-83
2023/12/10 05:00:17;;;;;;;4.00;1.80;;;1.40;99.90;;;;;;5064782;28;20029;-83
2023/12/10 05:02:43;;;;;;;3.17;1.67;;;1.40;99.90;;;;;;5081631;28;20028;-84
2023/12/10 05:05:09;;;;;;;4.30;1.60;;;1.30;99.90;;;;;;5066795;28;20021;-83
2023/12/10 05:07:35;;;;;;;5.00;1.60;;;1.30;99.90;;;;;;5086304;28;20032;-83
2023/12/10 05:10:01;;;;;;;2.70;1.50;;;1.30;99.90;;;;;;5061982;28;20021;-82
2023/12/10 05:12:27;;;;;;;2.45;1.23;;;1.30;99.90;;;;;;5084752;28;20049;-84
2023/12/10 05:14:52;;;;;;;8.02;4.28;;;1.30;99.90;;;;;;5083864;28;20037;-84
2023/12/10 05:17:18;;;;;;;10.93;3.75;;;1.30;99.90;;;;;;5076291;28;20052;-83
2023/12/10 05:19:44;;;;;;;284.33;66.13;;;1.30;99.90;;;;;;5084394;28;20040;-83
2023/12/10 05:22:09;;;;;;;124.82;31.60;;;1.30;99.90;;;;;;5086562;28;20025;-83
2023/12/10 05:24:35;;;;;;;78.03;22.17;;;1.30;99.90;;;;;;5084681;28;20024;-83
2023/12/10 05:27:01;;;;;;;46.85;14.98;;;1.30;99.90;;;;;;5079398;28;20025;-83
2023/12/10 05:29:26;;;;;;;16.60;6.00;;;1.30;99.90;;;;;;5068144;28;20037;-83
2023/12/10 05:31:52;;;;;;;19.63;6.07;;;1.30;99.90;;;;;;5082315;28;20035;-83
2023/12/10 05:34:18;;;;;;;12.52;4.75;;;1.30;99.90;;;;;;5080509;28;20071;-83
2023/12/10 05:36:45;;;;;;;10.85;4.13;;;1.30;99.90;;;;;;5085108;28;20032;-83
2023/12/10 05:39:10;;;;;;;7.72;3.63;;;1.30;99.90;;;;;;5064278;28;20111;-83
2023/12/10 05:41:37;;;;;;;8.82;4.70;;;1.30;99.90;;;;;;5076515;28;20070;-83
2023/12/10 05:44:02;;;;;;;7.32;3.60;;;1.30;99.90;;;;;;5083064;28;20035;-83
2023/12/10 05:46:28;;;;;;;6.22;3.17;;;1.40;99.90;;;;;;5058623;28;20040;-83
2023/12/10 05:48:54;;;;;;;9.07;3.70;;;1.40;99.90;;;;;;5076786;28;20043;-82
2023/12/10 05:51:19;;;;;;;6.70;2.45;;;1.40;99.90;;;;;;5081748;28;20028;-82
2023/12/10 05:53:45;;;;;;;4.63;3.13;;;1.40;99.90;;;;;;5065178;28;20530;-81
2023/12/10 05:56:11;;;;;;;4.63;2.65;;;1.40;99.90;;;;;;5064130;28;20062;-82
2023/12/10 05:58:37;;;;;;;3.08;2.38;;;1.30;99.90;;;;;;5065108;28;20050;-81
2023/12/10 06:01:02;;;;;;;5.57;3.25;;;1.30;99.90;;;;;;5082271;28;20040;-81
2023/12/10 06:03:28;;;;;;;8.77;3.28;;;1.30;99.90;;;;;;5068174;28;20037;-81
2023/12/10 06:05:54;;;;;;;13.30;4.65;;;1.30;99.90;;;;;;5060763;28;20080;-81
2023/12/10 06:08:20;;;;;;;15.80;4.97;;;1.30;99.90;;;;;;5067413;28;20400;-81
2023/12/10 06:10:46;;;;;;;12.43;4.97;;;1.20;99.90;;;;;;5065326;28;20108;-81
2023/12/10 06:13:11;;;;;;;6.47;2.53;;;1.20;99.90;;;;;;5079315;28;20044;-81
2023/12/10 06:15:37;;;;;;;3.75;1.95;;;1.20;99.90;;;;;;5077551;28;20020;-81
2023/12/10 06:18:03;;;;;;;5.25;2.30;;;1.20;99.90;;;;;;5078819;28;20032;-80
2023/12/10 06:20:29;;;;;;;8.02;2.10;;;1.20;99.90;;;;;;5077239;28;20031;-81
2023/12/10 06:22:54;;;;;;;7.90;1.85;;;1.20;99.90;;;;;;5078187;28;20055;-82
2023/12/10 06:25:20;;;;;;;6.22;3.15;;;1.30;99.90;;;;;;5063038;28;20050;-82
2023/12/10 06:27:45;;;;;;;6.90;2.10;;;1.30;99.90;;;;;;5064337;28;20025;-81
2023/12/10 06:30:11;;;;;;;4.68;1.75;;;1.30;99.90;;;;;;5064840;28;20408;-81
2023/12/10 06:32:37;;;;;;;5.82;2.08;;;1.30;99.90;;;;;;5064724;28;20073;-82
2023/12/10 06:35:03;;;;;;;2.88;1.60;;;1.30;99.90;;;;;;5079771;28;20028;-82
2023/12/10 06:37:30;;;;;;;3.83;1.15;;;1.20;99.90;;;;;;5065978;28;20028;-82
2023/12/10 06:39:56;;;;;;;6.55;1.77;;;1.20;99.90;;;;;;5071116;28;20075;-83
2023/12/10 06:42:22;;;;;;;5.43;1.50;;;1.20;99.90;;;;;;5087651;28;20025;-82
2023/12/10 06:44:48;;;;;;;3.22;1.60;;;1.20;99.90;;;;;;5086866;28;20028;-82
2023/12/10 06:47:13;;;;;;;4.03;1.67;;;1.20;99.90;;;;;;5086373;28;20056;-82
2023/12/10 06:49:39;;;;;;;3.33;1.45;;;1.20;99.90;;;;;;5088306;28;20039;-83
2023/12/10 06:52:05;;;;;;;2.70;1.20;;;1.20;99.90;;;;;;5085751;28;20111;-82
2023/12/10 06:54:31;;;;;;;3.17;1.95;;;1.20;99.90;;;;;;5064829;28;20107;-82
2023/12/10 06:56:56;;;;;;;4.40;2.92;;;1.20;99.90;;;;;;5081721;28;20035;-80
2023/12/10 06:59:22;;;;;;;5.90;3.40;;;1.20;99.90;;;;;;5065265;28;20427;-81
2023/12/10 07:01:48;;;;;;;5.07;2.67;;;1.20;99.90;;;;;;5065088;28;20046;-80
2023/12/10 07:04:13;;;;;;;6.15;3.97;;;1.20;99.90;;;;;;5079673;28;20408;-82
2023/12/10 07:06:39;;;;;;;14.60;8.82;;;1.30;99.90;;;;;;5064763;28;20511;-82
2023/12/10 07:09:06;;;;;;;7.50;4.95;;;1.20;99.90;;;;;;5080749;28;20453;-82
2023/12/10 07:11:32;;;;;;;6.40;4.05;;;1.20;99.90;;;;;;5080180;28;20043;-81
2023/12/10 07:13:58;;;;;;;7.07;4.00;;;1.30;99.90;;;;;;5081697;28;20065;-81
2023/12/10 07:16:24;;;;;;;7.88;3.88;;;1.20;99.90;;;;;;5081349;28;20124;-81
2023/12/10 07:18:50;;;;;;;8.10;4.13;;;1.20;99.90;;;;;;5082618;28;20028;-81
2023/12/10 07:21:15;;;;;;;6.32;3.33;;;1.20;99.90;;;;;;5065811;28;20036;-81
2023/12/10 07:23:41;;;;;;;6.00;3.53;;;1.20;99.90;;;;;;5064998;28;20029;-82
2023/12/10 07:26:07;;;;;;;5.32;2.83;;;1.20;99.90;;;;;;5079686;28;20112;-81
2023/12/10 07:28:33;;;;;;;5.25;1.83;;;1.20;99.90;;;;;;5060897;28;20031;-81
2023/12/10 07:30:58;;;;;;;2.75;1.67;;;1.20;99.90;;;;;;5060455;28;20443;-80
2023/12/10 07:33:24;;;;;;;4.93;2.20;;;1.20;99.90;;;;;;5075360;28;20090;-82
2023/12/10 07:35:50;;;;;;;12.73;7.15;;;1.20;99.90;;;;;;5074115;28;20017;-82
2023/12/10 07:38:16;;;;;;;20.23;10.82;;;1.20;99.90;;;;;;5078414;28;20431;-82
2023/12/10 07:40:41;;;;;;;13.88;6.15;;;1.20;99.90;;;;;;5062516;28;20051;-81
2023/12/10 07:43:07;;;;;;;8.25;3.47;;;1.30;99.90;;;;;;5062791;28;20393;-81
2023/12/10 07:45:33;;;;;;;8.30;3.70;;;1.30;99.90;;;;;;5075172;28;20083;-81
2023/12/10 07:47:59;;;;;;;8.18;3.53;;;1.40;99.90;;;;;;5066960;28;20035;-81
2023/12/10 07:50:24;;;;;;;10.98;4.93;;;1.40;99.90;;;;;;5071338;28;20072;-82
2023/12/10 07:52:50;;;;;;;5.35;2.95;;;1.50;99.90;;;;;;5043330;28;20031;-80
2023/12/10 07:55:16;;;;;;;5.15;3.30;;;1.50;99.90;;;;;;5077451;28;20028;-81
2023/12/10 07:57:41;;;;;;;6.13;3.50;;;1.40;99.90;;;;;;5080041;28;20033;-82
2023/12/10 08:00:07;;;;;;;7.70;3.63;;;1.40;99.90;;;;;;5073779;28;20119;-82
2023/12/10 08:02:33;;;;;;;5.65;3.15;;;1.40;99.90;;;;;;5075241;28;20104;-81
2023/12/10 08:04:59;;;;;;;9.02;2.90;;;1.40;99.90;;;;;;5073869;28;20053;-81
2023/12/10 08:07:25;;;;;;;9.93;4.40;;;1.50;99.90;;;;;;5075600;28;20435;-80
2023/12/10 08:09:51;;;;;;;10.23;5.00;;;1.50;99.90;;;;;;5074442;28;20021;-81
2023/12/10 08:12:17;;;;;;;13.48;4.90;;;1.60;99.90;;;;;;5078966;28;20052;-81
2023/12/10 08:14:43;;;;;;;10.10;6.00;;;1.60;99.90;;;;;;5076067;28;20024;-81
2023/12/10 08:17:09;;;;;;;13.02;6.63;;;1.60;99.90;;;;;;5080594;28;20025;-80
2023/12/10 08:19:35;;;;;;;7.25;4.43;;;1.60;99.90;;;;;;5050557;28;20052;-81
2023/12/10 08:22:01;;;;;;;8.55;4.68;;;1.60;99.90;;;;;;5078089;28;20023;-81
2023/12/10 08:24:27;;;;;;;7.25;3.97;;;1.70;99.90;;;;;;5077337;28;20028;-80
2023/12/10 08:26:54;;;;;;;7.45;3.88;;;1.60;99.90;;;;;;5082799;28;20033;-82
2023/12/10 08:29:19;;;;;;;7.90;3.67;;;1.60;99.90;;;;;;5079788;28;20028;-80
2023/12/10 08:31:45;;;;;;;5.80;3.42;;;1.60;99.90;;;;;;5041961;28;20123;-81
2023/12/10 08:34:11;;;;;;;10.27;3.75;;;1.70;99.90;;;;;;5065730;28;20040;-81
2023/12/10 08:36:37;;;;;;;9.90;4.68;;;1.70;99.90;;;;;;5059610;28;20082;-82
2023/12/10 08:39:03;;;;;;;11.02;5.38;;;1.70;99.90;;;;;;5075373;28;20021;-81
2023/12/10 08:41:30;;;;;;;9.25;4.35;;;1.70;99.90;;;;;;5058141;28;20055;-82
2023/12/10 08:43:56;;;;;;;6.90;3.33;;;1.70;99.90;;;;;;5076420;28;20066;-82
2023/12/10 08:46:22;;;;;;;4.60;2.50;;;1.70;99.90;;;;;;5074567;28;20024;-82
2023/12/10 08:48:48;;;;;;;9.90;4.15;;;1.80;99.90;;;;;;5075281;28;20037;-82
2023/12/10 08:51:13;;;;;;;9.02;5.25;;;1.80;99.90;;;;;;5074501;28;20028;-81
2023/12/10 08:53:39;;;;;;;12.20;6.05;;;1.90;99.90;;;;;;5073723;28;20107;-81
2023/12/10 08:56:05;;;;;;;9.55;5.13;;;1.90;99.90;;;;;;5081826;28;20097;-82
2023/12/10 08:58:32;;;;;;;7.78;3.90;;;2.00;99.90;;;;;;5082770;28;20025;-82
2023/12/10 09:00:59;;;;;;;8.73;4.00;;;2.00;99.90;;;;;;5084247;28;20021;-81
2023/12/10 09:03:25;;;;;;;9.27;6.03;;;2.00;99.90;;;;;;5080295;28;20048;-80
2023/12/10 09:05:50;;;;;;;16.92;9.32;;;2.10;99.90;;;;;;5051652;28;20055;-81
2023/12/10 09:08:16;;;;;;;17.13;9.48;;;2.00;99.90;;;;;;5079771;28;20554;-80
2023/12/10 09:10:43;;;;;;;13.63;6.97;;;2.10;99.90;;;;;;5078691;28;20036;-81
2023/12/10 09:13:09;;;;;;;21.73;11.52;;;2.00;99.90;;;;;;5076435;28;20062;-81
2023/12/10 09:15:35;;;;;;;23.08;10.35;;;2.10;99.90;;;;;;5077812;28;20451;-81
2023/12/10 09:18:01;;;;;;;29.48;10.77;;;2.10;99.90;;;;;;5059913;28;20056;-81
2023/12/10 09:20:26;;;;;;;39.67;12.43;;;2.00;99.90;;;;;;5065838;28;20031;-80
2023/12/10 09:22:52;;;;;;;30.40;11.77;;;2.00;99.90;;;;;;5075850;28;20503;-80
2023/12/10 09:25:18;;;;;;;37.00;16.48;;;2.00;99.90;;;;;;5075960;28;20028;-80
2023/12/10 09:27:44;;;;;;;31.65;14.85;;;2.00;99.90;;;;;;5075221;28;20499;-80
2023/12/10 09:30:09;;;;;;;33.28;16.80;;;2.00;99.90;;;;;;5076463;28;20028;-81
2023/12/10 09:32:36;;;;;;;26.58;13.80;;;2.00;99.90;;;;;;5077409;28;20427;-81
2023/12/10 09:35:04;;;;;;;21.30;12.30;;;2.00;99.90;;;;;;5075372;28;20036;-80
2023/12/10 09:37:29;;;;;;;23.75;14.25;;;2.10;99.90;;;;;;5077246;28;20100;-80
2023/12/10 09:39:55;;;;;;;22.65;14.13;;;2.10;99.90;;;;;;5075381;28;20048;-81
2023/12/10 09:42:21;;;;;;;39.67;26.17;;;2.20;99.90;;;;;;5075195;28;20555;-80
2023/12/10 09:44:46;;;;;;;42.60;30.38;;;2.20;99.90;;;;;;5077945;28;20086;-81
2023/12/10 09:47:12;;;;;;;46.20;32.20;;;2.20;99.90;;;;;;5056443;28;20067;-81
2023/12/10 09:49:40;;;;;;;45.03;34.03;;;2.20;99.90;;;;;;5055593;28;20025;-81
2023/12/10 09:52:07;;;;;;;44.78;32.92;;;2.30;99.90;;;;;;5073028;28;20036;-82
2023/12/10 09:54:33;;;;;;;38.15;23.75;;;2.30;99.90;;;;;;5075947;28;20020;-81
2023/12/10 09:56:59;;;;;;;24.17;15.57;;;2.40;99.90;;;;;;5074292;28;20393;-81
2023/12/10 09:59:24;;;;;;;22.73;13.55;;;2.40;99.90;;;;;;5074365;28;20163;-80
2023/12/10 10:01:52;;;;;;;18.35;11.18;;;2.40;99.90;;;;;;5041263;28;20063;-80
2023/12/10 10:04:18;;;;;;;14.82;9.55;;;2.50;99.90;;;;;;5076255;28;20024;-80
2023/12/10 10:06:43;;;;;;;14.75;8.85;;;2.50;99.90;;;;;;5074668;28;20035;-79
2023/12/10 10:09:10;;;;;;;12.65;7.35;;;2.50;99.90;;;;;;5076500;28;20484;-80
2023/12/10 10:11:37;;;;;;;14.30;7.80;;;2.50;99.90;;;;;;5041936;28;20033;-80
2023/12/10 10:14:03;;;;;;;15.90;9.60;;;2.60;99.90;;;;;;5074682;28;20508;-80
2023/12/10 10:16:30;;;;;;;20.13;11.13;;;2.60;99.90;;;;;;5075095;28;20025;-80
2023/12/10 10:18:58;;;;;;;18.73;11.32;;;2.50;99.90;;;;;;5074679;28;20031;-81
2023/12/10 10:21:24;;;;;;;25.15;14.68;;;2.50;99.90;;;;;;5074575;28;20099;-80
2023/12/10 10:23:50;;;;;;;24.67;15.57;;;2.50;99.90;;;;;;5075602;28;20123;-81
2023/12/10 10:26:17;;;;;;;27.23;15.20;;;2.40;99.90;;;;;;5074004;28;20029;-82
2023/12/10 10:28:45;;;;;;;26.98;14.45;;;2.40;99.90;;;;;;5074978;28;20489;-82
2023/12/10 10:31:11;;;;;;;31.67;14.25;;;2.40;99.90;;;;;;5075566;28;20027;-82
2023/12/10 10:33:37;;;;;;;31.83;15.85;;;2.40;99.90;;;;;;5074890;28;20032;-83
2023/12/10 10:36:04;;;;;;;21.90;12.18;;;2.40;99.90;;;;;;5075821;28;20020;-82
2023/12/10 10:38:31;;;;;;;24.02;12.23;;;2.40;99.90;;;;;;5075765;28;20066;-83
2023/12/10 10:41:01;;;;;;;26.38;13.10;;;2.50;99.90;;;;;;5075991;28;20481;-83
2023/12/10 10:43:26;;;;;;;28.92;13.32;;;2.50;99.90;;;;;;5076041;28;20032;-83
2023/12/10 10:45:53;;;;;;;24.27;12.50;;;2.50;99.90;;;;;;5075343;28;20476;-82
2023/12/10 10:48:25;;;;;;;21.73;11.02;;;2.50;99.90;;;;;;5074156;28;20418;-81
2023/12/10 10:50:52;;;;;;;;;;;2.60;99.90;;;;;;5074464;28;20082;-78
2023/12/10 10:53:18;;;;;;;17.30;10.13;;;2.50;99.90;;;;;;5078013;28;19919;-78
2023/12/10 10:55:48;;;;;;;20.52;9.63;;;2.60;99.90;;;;;;5080858;28;20039;-78
2023/12/10 10:58:28;;;;;;;24.33;8.65;;;2.60;99.90;;;;;;5085022;28;20074;-79
2023/12/10 11:00:55;;;;;;;16.17;8.68;;;2.60;99.90;;;;;;5069292;28;20025;-79
2023/12/10 11:03:23;;;;;;;16.38;7.03;;;2.60;99.90;;;;;;5082561;28;20033;-79
2023/12/10 11:05:49;;;;;;;15.02;7.50;;;2.60;99.90;;;;;;5083044;28;20035;-79
2023/12/10 11:08:15;;;;;;;15.70;7.63;;;2.60;99.90;;;;;;5086140;28;20029;-79
2023/12/10 11:10:43;;;;;;;17.63;8.32;;;2.70;99.90;;;;;;5082079;28;20032;-79
2023/12/10 11:13:09;;;;;;;14.68;7.95;;;2.60;99.90;;;;;;5082831;28;20039;-79
2023/12/10 11:15:35;;;;;;;17.67;8.60;;;2.70;99.90;;;;;;5080302;28;20029;-79
2023/12/10 11:18:02;;;;;;;14.95;8.57;;;2.70;99.90;;;;;;5078712;28;20542;-79
2023/12/10 11:20:34;;;;;;;17.23;8.73;;;2.90;99.90;;;;;;5079055;28;20021;-79
2023/12/10 11:23:05;;;;;;;17.95;9.25;;;3.00;99.90;;;;;;5077570;28;20054;-79
2023/12/10 11:25:31;;;;;;;17.63;8.55;;;3.10;99.90;;;;;;5081261;28;20060;-80
2023/12/10 11:28:00;;;;;;;19.92;10.05;;;3.20;99.90;;;;;;5076017;28;20100;-79
2023/12/10 11:30:26;;;;;;;22.35;11.18;;;3.20;99.90;;;;;;5075394;28;20108;-80
2023/12/10 11:32:52;;;;;;;21.98;11.43;;;3.30;99.90;;;;;;5058897;28;20021;-81
2023/12/10 11:35:18;;;;;;;27.63;14.80;;;3.40;99.90;;;;;;5075704;28;20080;-78
2023/12/10 11:37:44;;;;;;;23.77;12.27;;;3.50;99.90;;;;;;5077486;28;20366;-78
2023/12/10 11:40:10;;;;;;;22.85;11.48;;;3.60;99.90;;;;;;5077846;28;20035;-79
2023/12/10 11:42:36;;;;;;;22.58;13.70;;;3.60;99.90;;;;;;5077120;28;20031;-78
2023/12/10 11:45:04;;;;;;;23.85;12.35;;;3.70;99.90;;;;;;5078162;28;20108;-79
2023/12/10 11:47:30;;;;;;;17.17;11.38;;;3.80;99.90;;;;;;5066638;28;20021;-79
2023/12/10 11:49:56;;;;;;;20.23;10.90;;;3.80;99.90;;;;;;5060366;28;20431;-79
2023/12/10 11:52:22;;;;;;;23.52;11.38;;;3.90;99.90;;;;;;5061126;28;20095;-79
2023/12/10 11:54:48;;;;;;;18.88;10.18;;;3.90;99.90;;;;;;5078170;28;20112;-78
2023/12/10 11:57:14;;;;;;;25.65;11.00;;;3.90;99.90;;;;;;5060523;28;20025;-79
2023/12/10 11:59:39;;;;;;;19.15;9.70;;;3.90;99.90;;;;;;5081902;28;20029;-80
2023/12/10 12:02:06;;;;;;;19.02;9.98;;;3.90;99.90;;;;;;5087096;28;20112;-80
2023/12/10 12:04:33;;;;;;;21.17;9.88;;;3.90;99.90;;;;;;5086337;28;20036;-80
2023/12/10 12:06:59;;;;;;;15.77;8.50;;;3.90;99.90;;;;;;5086623;28;20385;-79
2023/12/10 12:09:25;;;;;;;20.25;8.73;;;4.00;99.90;;;;;;5085925;28;20194;-79
2023/12/10 12:11:51;;;;;;;17.45;10.82;;;4.00;99.90;;;;;;5083569;28;20040;-79
2023/12/10 12:14:18;;;;;;;19.77;9.05;;;4.10;99.90;;;;;;5084274;28;20024;-80
2023/12/10 12:16:45;;;;;;;15.05;7.32;;;4.20;99.90;;;;;;5077550;28;20096;-82
2023/12/10 12:19:23;;;;;;;18.10;6.72;;;4.30;99.90;;;;;;5047678;28;20061;-80
2023/12/10 12:21:49;;;;;;;12.95;7.30;;;4.40;99.90;;;;;;5079223;28;20024;-80
2023/12/10 12:24:15;;;;;;;12.00;5.78;;;4.40;99.90;;;;;;5066493;28;20032;-80
2023/12/10 12:26:41;;;;;;;14.98;5.85;;;4.40;99.90;;;;;;5085765;28;20024;-81
2023/12/10 12:29:06;;;;;;;12.25;5.32;;;4.40;99.90;;;;;;5078616;28;20036;-82
2023/12/10 12:31:32;;;;;;;10.50;5.78;;;4.40;99.90;;;;;;5079109;28;20033;-81
2023/12/10 12:33:57;;;;;;;11.40;5.20;;;4.50;99.90;;;;;;5045879;28;20036;-82
2023/12/10 12:36:23;;;;;;;9.93;5.22;;;4.60;99.90;;;;;;5087645;28;20025;-81
2023/12/10 12:38:49;;;;;;;14.68;6.20;;;4.60;99.90;;;;;;5070674;28;20103;-82
2023/12/10 12:41:14;;;;;;;11.80;5.65;;;4.70;99.90;;;;;;5067256;28;20036;-83
2023/12/10 12:43:40;;;;;;;10.30;5.90;;;4.70;99.90;;;;;;5085749;28;20025;-78
2023/12/10 12:46:07;;;;;;;12.75;5.90;;;4.70;99.90;;;;;;5089292;28;20028;-80